Terminal Aerodrome Forecast
Issued by NWS

Home | Current Version | Previous Version | Text Only | Print | Product List | Glossary On
Versions: 1 2 3 4 5 6 7 8 9 10 11 12 13 14 15 16 17
000
FTUS45 KABQ 021100 RRA
TAFAEG
TAF
KAEG 021142Z 0212/0312 06009KT P6SM SCT120
     FM021700 16016G25KT P6SM VCSH SCT030 BKN045
     FM030300 30014G22KT 5SM SHRA BR OVC020=

USA.gov is the U.S. government's official web portal to all federal, state and local government web resources and services.